首页
METAR-TAF:

METAR-TAF

机场 :

夏延, 怀俄明州, 美国

纬度: 41-09-28N, 经度: 104-48-25W, 海拔: 1876米

当前天气观测

该预报发布于41分钟前的20:53 UTC
风速10节,风向南转南东
温度 28°C
湿度 35%
气压 1017 hPa
能見度: 16.1公里
天空无云

METAR: KCYS 222053Z 16010KT 10SM CLR 28/11 A3002 RMK AO2 LTG DSNT W AND NW TSB04E20 SLP074 T02830111 55006

时间: 15:34 (21:34 UTC)

预报

该预报发布于3小时和38分钟前的17:56 UTC
预报有效从22日的 18点(UTC)到 23日的 18点(UTC)
风速13节,风向,有时为23节阵风
能見度: 10公里
散云层高于7000英尺
从 22日的 2000点(UTC)
风速14节,风向,有时为24节阵风
能見度: 10公里
散云层高于6000英尺, 积雨云.
多云层高于25000英尺
附近有雷暴
短暂存在
从 22日的 21点(UTC)到 22日的 23点(UTC)
风速15节,风向,有时为35节阵风
能見度: 9.7公里
多云层高于6000英尺, 积雨云.
阴天层高于10000英尺
雷暴, 雨
从 23日的 0100点(UTC)
风速12节,风向
能見度: 10公里
散云层高于5000英尺
多云层高于10000英尺
附近有阵雨
从 23日的 0500点(UTC)
风速8节,风向南转西南
能見度: 10公里
散云层高于25000英尺
从 23日的 1400点(UTC)
风速6节,风向西北
能見度: 10公里
散云层高于25000英尺

TAF: KCYS 221756Z 2218/2318 17013G23KT P6SM SCT070 FM222000 18014G24KT P6SM VCTS SCT060CB BKN250 TEMPO 2221/2223 18015G35KT 6SM TSRA BKN060CB OVC100 FM230100 19012KT P6SM VCSH SCT050 BKN100 FM230500 20008KT P6SM SCT250 FM231400 32006KT P6SM SCT250

超过4000个机场的气象观测和天气预报(METAR&TAF报告)。

可查询的气象台以黄色和红色小点在地图上表示。

将鼠标移到小点上方,可查看气象台名称。

然后点击查看天气观测和预报。

如需切换地图:点击带黑十字的绿色按钮放大地图;点击带横线的绿色按钮缩小地图;或者点击绿色箭头查看邻近地区的地图。


METAR-TAF: